LICJ/PMO METAR and TAF weather

Enter ICAO airport designator
Station Type Date Time Source
LICJ METAR 2021/01/20 22:20 UTC NOAA

LICJ 202220Z 18022G32KT 9999 FEW040 15/05 Q1021


Station Type Date Time Source
LICJ Decoded METAR 2021/01/20 22:20 UTC NOAA

Palermo / Punta Raisi, Italy (LICJ) 38-11N 013-06E 21M
Jan 20, 2021 - 05:20 PM EST / 2021.01.20 2220 UTC
Wind: from the S (180 degrees) at 25 MPH (22 KT) gusting to 37 MPH (32 KT):0
Visibility: greater than 7 mile(s):0
Sky conditions: mostly clear
Temperature: 59 F (15 C)
Dew Point: 41 F (5 C)
Relative Humidity: 51%
Pressure (altimeter): 30.15 in. Hg (1021 hPa)
ob: LICJ 202220Z 18022G32KT 9999 FEW040 15/05 Q1021
cycle: 22

Station Type Date Time Source
LICJ TAF 2021/01/20 18:40 UTC NOAA

TAF LICJ 201736Z 2018/2118 19022G35KT 9999 SCT030

Example: see airport list